Villas de Maunabo, Puerto Rico
Current Conditions -  °F | °C
As of 8:14 AM on Wednesday 22 Oct 2014 (Local Time) from TJNR Reporting Station
Overcast Overcast  
Wind Chill: 85°   Ceiling: 4000
Heat Index: 92°   Visibility: 10mi
Dew Point: 74°   Wind: 9mph
Humidity: 69%   Direction: 120°ESE
Pressure: 30.01"   Gusts: NA
Location:  18.0098°N, 65.8982°W
Report Text: TJNR 221214Z AUTO 12008KT 10SM SCT024 BKN040 OVC065 29/23 A3001 RMK AO2 T02940233
Loading
Personal Weather Stations






























Interactive Weather Map
Tropical Storm Tracking
New forecast layout! Learn more

10-Day Weather Forecast

Advertisements
Track Severe Weather on mobile